sensor_id;sensor_type;location;lat;lon;timestamp;temperature;humidity
63371;DHT22;72561;48.336;14.472;2024-01-30T00:00:12;28.00;40.90
63371;DHT22;72561;48.336;14.472;2024-01-30T00:01:54;28.00;40.80
63371;DHT22;72561;48.336;14.472;2024-01-30T00:03:35;28.00;40.80
63371;DHT22;72561;48.336;14.472;2024-01-30T00:05:16;28.00;40.80
63371;DHT22;72561;48.336;14.472;2024-01-30T00:06:57;28.00;40.80
63371;DHT22;72561;48.336;14.472;2024-01-30T00:08:38;28.00;40.80
63371;DHT22;72561;48.336;14.472;2024-01-30T00:10:19;28.00;40.80
63371;DHT22;72561;48.336;14.472;2024-01-30T00:12:00;28.00;40.80
63371;DHT22;72561;48.336;14.472;2024-01-30T00:13:41;28.00;40.80
63371;DHT22;72561;48.336;14.472;2024-01-30T00:15:24;28.00;40.70
63371;DHT22;72561;48.336;14.472;2024-01-30T00:17:05;28.00;40.70
63371;DHT22;72561;48.336;14.472;2024-01-30T00:18:46;28.00;40.80
63371;DHT22;72561;48.336;14.472;2024-01-30T00:20:27;28.10;40.90
63371;DHT22;72561;48.336;14.472;2024-01-30T00:22:08;28.00;40.80
63371;DHT22;72561;48.336;14.472;2024-01-30T00:23:50;28.00;41.40
63371;DHT22;72561;48.336;14.472;2024-01-30T00:25:31;28.00;40.80
63371;DHT22;72561;48.336;14.472;2024-01-30T00:27:12;28.00;40.70
63371;DHT22;72561;48.336;14.472;2024-01-30T00:28:53;28.00;40.70
63371;DHT22;72561;48.336;14.472;2024-01-30T00:30:35;28.00;40.70
63371;DHT22;72561;48.336;14.472;2024-01-30T00:32:16;28.00;40.70
63371;DHT22;72561;48.336;14.472;2024-01-30T00:33:58;28.00;40.70
63371;DHT22;72561;48.336;14.472;2024-01-30T00:35:39;28.00;40.70
63371;DHT22;72561;48.336;14.472;2024-01-30T00:37:20;28.00;40.60
63371;DHT22;72561;48.336;14.472;2024-01-30T00:39:01;28.00;40.70
63371;DHT22;72561;48.336;14.472;2024-01-30T00:40:42;28.00;40.60
63371;DHT22;72561;48.336;14.472;2024-01-30T00:42:23;28.00;40.60
63371;DHT22;72561;48.336;14.472;2024-01-30T00:44:04;28.00;40.60
63371;DHT22;72561;48.336;14.472;2024-01-30T00:45:47;28.00;40.60
63371;DHT22;72561;48.336;14.472;2024-01-30T00:47:28;28.00;40.60
63371;DHT22;72561;48.336;14.472;2024-01-30T00:49:10;28.00;40.70
63371;DHT22;72561;48.336;14.472;2024-01-30T00:50:51;28.00;40.60
63371;DHT22;72561;48.336;14.472;2024-01-30T00:52:32;28.00;40.60
63371;DHT22;72561;48.336;14.472;2024-01-30T00:54:13;28.00;40.60
63371;DHT22;72561;48.336;14.472;2024-01-30T00:55:54;28.00;40.60
63371;DHT22;72561;48.336;14.472;2024-01-30T00:57:35;28.00;40.60
63371;DHT22;72561;48.336;14.472;2024-01-30T00:59:16;28.00;40.60
63371;DHT22;72561;48.336;14.472;2024-01-30T01:00:59;28.00;40.60
63371;DHT22;72561;48.336;14.472;2024-01-30T01:02:40;28.00;40.60
63371;DHT22;72561;48.336;14.472;2024-01-30T01:04:21;28.00;40.60
63371;DHT22;72561;48.336;14.472;2024-01-30T01:06:02;28.00;40.60
63371;DHT22;72561;48.336;14.472;2024-01-30T01:07:44;28.00;40.60
63371;DHT22;72561;48.336;14.472;2024-01-30T01:09:25;28.00;40.60
63371;DHT22;72561;48.336;14.472;2024-01-30T01:11:07;28.00;40.60
63371;DHT22;72561;48.336;14.472;2024-01-30T01:12:54;28.00;40.60
63371;DHT22;72561;48.336;14.472;2024-01-30T01:14:35;28.00;40.60
63371;DHT22;72561;48.336;14.472;2024-01-30T01:16:18;28.00;40.60
63371;DHT22;72561;48.336;14.472;2024-01-30T01:17:59;28.00;40.60
63371;DHT22;72561;48.336;14.472;2024-01-30T01:19:40;28.00;40.60
63371;DHT22;72561;48.336;14.472;2024-01-30T01:21:21;28.00;40.60
63371;DHT22;72561;48.336;14.472;2024-01-30T01:23:03;28.00;40.60
63371;DHT22;72561;48.336;14.472;2024-01-30T01:24:44;28.00;40.60
63371;DHT22;72561;48.336;14.472;2024-01-30T01:26:25;28.00;40.60
63371;DHT22;72561;48.336;14.472;2024-01-30T01:28:06;28.00;40.60
63371;DHT22;72561;48.336;14.472;2024-01-30T01:29:47;28.00;40.60
63371;DHT22;72561;48.336;14.472;2024-01-30T01:32:51;28.00;40.10
63371;DHT22;72561;48.336;14.472;2024-01-30T01:34:32;28.00;40.70
63371;DHT22;72561;48.336;14.472;2024-01-30T01:36:14;28.00;40.60
63371;DHT22;72561;48.336;14.472;2024-01-30T01:37:55;28.00;40.60
63371;DHT22;72561;48.336;14.472;2024-01-30T01:39:36;28.00;40.60
63371;DHT22;72561;48.336;14.472;2024-01-30T01:41:17;28.00;40.60
63371;DHT22;72561;48.336;14.472;2024-01-30T01:43:47;28.00;40.10
63371;DHT22;72561;48.336;14.472;2024-01-30T01:45:28;28.00;40.60
63371;DHT22;72561;48.336;14.472;2024-01-30T01:47:09;28.00;40.60
63371;DHT22;72561;48.336;14.472;2024-01-30T01:48:51;28.00;40.60
63371;DHT22;72561;48.336;14.472;2024-01-30T01:50:32;28.00;40.70
63371;DHT22;72561;48.336;14.472;2024-01-30T01:52:13;28.00;40.70
63371;DHT22;72561;48.336;14.472;2024-01-30T01:53:55;28.00;40.70
63371;DHT22;72561;48.336;14.472;2024-01-30T01:55:38;28.00;40.60
63371;DHT22;72561;48.336;14.472;2024-01-30T01:57:19;28.00;40.60
63371;DHT22;72561;48.336;14.472;2024-01-30T01:59:05;28.00;40.60
63371;DHT22;72561;48.336;14.472;2024-01-30T02:00:47;28.00;40.60
63371;DHT22;72561;48.336;14.472;2024-01-30T02:02:30;28.00;40.60
63371;DHT22;72561;48.336;14.472;2024-01-30T02:04:15;28.00;40.60
63371;DHT22;72561;48.336;14.472;2024-01-30T02:05:57;28.00;40.60
63371;DHT22;72561;48.336;14.472;2024-01-30T02:07:38;28.00;41.20
63371;DHT22;72561;48.336;14.472;2024-01-30T02:09:20;28.00;40.60
63371;DHT22;72561;48.336;14.472;2024-01-30T02:11:01;28.00;40.60
63371;DHT22;72561;48.336;14.472;2024-01-30T02:12:42;28.00;40.60
63371;DHT22;72561;48.336;14.472;2024-01-30T02:14:24;28.00;40.60
63371;DHT22;72561;48.336;14.472;2024-01-30T02:16:06;28.00;40.60
63371;DHT22;72561;48.336;14.472;2024-01-30T02:17:47;28.00;40.60
63371;DHT22;72561;48.336;14.472;2024-01-30T02:19:28;28.00;40.60
63371;DHT22;72561;48.336;14.472;2024-01-30T02:21:11;28.00;40.60
63371;DHT22;72561;48.336;14.472;2024-01-30T02:22:54;28.00;40.50
63371;DHT22;72561;48.336;14.472;2024-01-30T02:24:38;28.00;40.50
63371;DHT22;72561;48.336;14.472;2024-01-30T02:26:19;28.00;40.50
63371;DHT22;72561;48.336;14.472;2024-01-30T02:28:00;28.00;40.50
63371;DHT22;72561;48.336;14.472;2024-01-30T02:29:41;28.00;40.50
63371;DHT22;72561;48.336;14.472;2024-01-30T02:31:22;28.00;40.50
63371;DHT22;72561;48.336;14.472;2024-01-30T02:33:06;28.00;40.50
63371;DHT22;72561;48.336;14.472;2024-01-30T02:34:47;28.00;40.50
63371;DHT22;72561;48.336;14.472;2024-01-30T02:36:29;28.00;40.50
63371;DHT22;72561;48.336;14.472;2024-01-30T02:38:10;28.00;40.50
63371;DHT22;72561;48.336;14.472;2024-01-30T02:39:51;28.00;40.50
63371;DHT22;72561;48.336;14.472;2024-01-30T02:41:33;28.00;40.50
63371;DHT22;72561;48.336;14.472;2024-01-30T02:43:14;28.00;40.50
63371;DHT22;72561;48.336;14.472;2024-01-30T02:44:55;28.00;40.50
63371;DHT22;72561;48.336;14.472;2024-01-30T02:46:36;28.00;40.50
63371;DHT22;72561;48.336;14.472;2024-01-30T02:48:17;28.00;40.50
63371;DHT22;72561;48.336;14.472;2024-01-30T02:49:58;28.00;40.50
63371;DHT22;72561;48.336;14.472;2024-01-30T02:51:41;28.00;40.50
63371;DHT22;72561;48.336;14.472;2024-01-30T02:53:22;28.00;40.40
63371;DHT22;72561;48.336;14.472;2024-01-30T02:55:04;28.00;40.40
63371;DHT22;72561;48.336;14.472;2024-01-30T02:56:46;28.00;40.40
63371;DHT22;72561;48.336;14.472;2024-01-30T02:58:27;28.00;40.40
63371;DHT22;72561;48.336;14.472;2024-01-30T03:00:09;28.00;40.50
63371;DHT22;72561;48.336;14.472;2024-01-30T03:01:50;28.00;40.50
63371;DHT22;72561;48.336;14.472;2024-01-30T03:03:32;28.00;40.40
63371;DHT22;72561;48.336;14.472;2024-01-30T03:05:13;28.00;40.40
63371;DHT22;72561;48.336;14.472;2024-01-30T03:06:55;28.00;40.40
63371;DHT22;72561;48.336;14.472;2024-01-30T03:08:37;28.00;40.40
63371;DHT22;72561;48.336;14.472;2024-01-30T03:10:18;28.00;40.40
63371;DHT22;72561;48.336;14.472;2024-01-30T03:11:59;28.00;40.40
63371;DHT22;72561;48.336;14.472;2024-01-30T03:13:40;28.00;40.50
63371;DHT22;72561;48.336;14.472;2024-01-30T03:15:21;28.00;40.40
63371;DHT22;72561;48.336;14.472;2024-01-30T03:17:02;28.00;40.40
63371;DHT22;72561;48.336;14.472;2024-01-30T03:18:44;28.00;40.40
63371;DHT22;72561;48.336;14.472;2024-01-30T03:20:25;28.00;40.30
63371;DHT22;72561;48.336;14.472;2024-01-30T03:22:07;28.00;40.40
63371;DHT22;72561;48.336;14.472;2024-01-30T03:23:51;28.00;40.40
63371;DHT22;72561;48.336;14.472;2024-01-30T03:25:32;28.00;40.40
63371;DHT22;72561;48.336;14.472;2024-01-30T03:27:13;28.00;40.30
63371;DHT22;72561;48.336;14.472;2024-01-30T03:28:54;28.00;40.30
63371;DHT22;72561;48.336;14.472;2024-01-30T03:30:35;28.00;40.30
63371;DHT22;72561;48.336;14.472;2024-01-30T03:32:16;28.00;40.30
63371;DHT22;72561;48.336;14.472;2024-01-30T03:33:57;28.00;40.30
63371;DHT22;72561;48.336;14.472;2024-01-30T03:35:38;28.00;40.40
63371;DHT22;72561;48.336;14.472;2024-01-30T03:37:21;28.00;40.40
63371;DHT22;72561;48.336;14.472;2024-01-30T03:39:02;28.00;40.40
63371;DHT22;72561;48.336;14.472;2024-01-30T03:40:43;28.00;40.30
63371;DHT22;72561;48.336;14.472;2024-01-30T03:42:24;28.00;40.30
63371;DHT22;72561;48.336;14.472;2024-01-30T03:44:06;28.00;40.30
63371;DHT22;72561;48.336;14.472;2024-01-30T03:45:47;28.00;40.30
63371;DHT22;72561;48.336;14.472;2024-01-30T03:47:28;28.00;40.40
63371;DHT22;72561;48.336;14.472;2024-01-30T03:49:10;28.00;40.30
63371;DHT22;72561;48.336;14.472;2024-01-30T03:50:53;28.00;40.30
63371;DHT22;72561;48.336;14.472;2024-01-30T03:52:38;28.00;40.40
63371;DHT22;72561;48.336;14.472;2024-01-30T03:54:19;28.00;40.30
63371;DHT22;72561;48.336;14.472;2024-01-30T03:56:00;28.00;40.30
63371;DHT22;72561;48.336;14.472;2024-01-30T03:57:41;28.00;40.40
63371;DHT22;72561;48.336;14.472;2024-01-30T03:59:23;28.00;40.30
63371;DHT22;72561;48.336;14.472;2024-01-30T04:02:15;28.00;39.80
63371;DHT22;72561;48.336;14.472;2024-01-30T04:03:56;28.00;40.30
63371;DHT22;72561;48.336;14.472;2024-01-30T04:05:37;28.00;40.30
63371;DHT22;72561;48.336;14.472;2024-01-30T04:07:18;28.00;40.30
63371;DHT22;72561;48.336;14.472;2024-01-30T04:08:59;28.00;40.30
63371;DHT22;72561;48.336;14.472;2024-01-30T04:10:40;28.00;40.30
63371;DHT22;72561;48.336;14.472;2024-01-30T04:12:21;28.00;40.30
63371;DHT22;72561;48.336;14.472;2024-01-30T04:14:02;28.00;40.30
63371;DHT22;72561;48.336;14.472;2024-01-30T04:15:43;28.00;40.30
63371;DHT22;72561;48.336;14.472;2024-01-30T04:17:26;28.00;40.30
63371;DHT22;72561;48.336;14.472;2024-01-30T04:19:07;28.00;40.30
63371;DHT22;72561;48.336;14.472;2024-01-30T04:20:48;28.00;40.30
63371;DHT22;72561;48.336;14.472;2024-01-30T04:22:29;28.00;40.30
63371;DHT22;72561;48.336;14.472;2024-01-30T04:24:11;28.00;40.30
63371;DHT22;72561;48.336;14.472;2024-01-30T04:25:52;28.00;40.30
63371;DHT22;72561;48.336;14.472;2024-01-30T04:27:33;28.00;40.30
63371;DHT22;72561;48.336;14.472;2024-01-30T04:29:14;28.00;40.20
63371;DHT22;72561;48.336;14.472;2024-01-30T04:30:55;28.00;40.30
63371;DHT22;72561;48.336;14.472;2024-01-30T04:32:37;28.00;40.30
63371;DHT22;72561;48.336;14.472;2024-01-30T04:34:19;28.00;40.20
63371;DHT22;72561;48.336;14.472;2024-01-30T04:36:00;28.00;40.30
63371;DHT22;72561;48.336;14.472;2024-01-30T04:37:41;28.00;40.30
63371;DHT22;72561;48.336;14.472;2024-01-30T04:39:22;28.00;40.40
63371;DHT22;72561;48.336;14.472;2024-01-30T04:41:03;27.90;40.20
63371;DHT22;72561;48.336;14.472;2024-01-30T04:42:44;28.00;40.30
63371;DHT22;72561;48.336;14.472;2024-01-30T04:44:25;28.00;40.30
63371;DHT22;72561;48.336;14.472;2024-01-30T04:46:06;28.00;40.30
63371;DHT22;72561;48.336;14.472;2024-01-30T04:47:49;28.00;40.40
63371;DHT22;72561;48.336;14.472;2024-01-30T04:49:31;28.00;40.20
63371;DHT22;72561;48.336;14.472;2024-01-30T04:51:13;28.00;40.30
63371;DHT22;72561;48.336;14.472;2024-01-30T04:52:54;28.00;40.20
63371;DHT22;72561;48.336;14.472;2024-01-30T04:54:35;28.00;40.20
63371;DHT22;72561;48.336;14.472;2024-01-30T04:56:16;28.00;40.10
63371;DHT22;72561;48.336;14.472;2024-01-30T04:57:58;28.00;40.10
63371;DHT22;72561;48.336;14.472;2024-01-30T04:59:39;28.00;40.00
63371;DHT22;72561;48.336;14.472;2024-01-30T05:01:20;28.00;40.10
63371;DHT22;72561;48.336;14.472;2024-01-30T05:03:03;28.00;40.10
63371;DHT22;72561;48.336;14.472;2024-01-30T05:04:44;28.00;40.10
63371;DHT22;72561;48.336;14.472;2024-01-30T05:06:25;28.00;40.10
63371;DHT22;72561;48.336;14.472;2024-01-30T05:08:07;28.00;40.10
63371;DHT22;72561;48.336;14.472;2024-01-30T05:12:47;28.00;39.50
63371;DHT22;72561;48.336;14.472;2024-01-30T05:14:28;27.90;40.00
63371;DHT22;72561;48.336;14.472;2024-01-30T05:16:09;28.00;40.00
63371;DHT22;72561;48.336;14.472;2024-01-30T05:17:50;28.00;40.00
63371;DHT22;72561;48.336;14.472;2024-01-30T05:19:31;27.90;40.00
63371;DHT22;72561;48.336;14.472;2024-01-30T05:21:12;27.90;40.00
63371;DHT22;72561;48.336;14.472;2024-01-30T05:22:54;27.90;40.00
63371;DHT22;72561;48.336;14.472;2024-01-30T05:24:35;27.90;39.90
63371;DHT22;72561;48.336;14.472;2024-01-30T05:26:16;27.90;40.00
63371;DHT22;72561;48.336;14.472;2024-01-30T05:27:59;27.90;40.00
63371;DHT22;72561;48.336;14.472;2024-01-30T05:29:40;27.90;39.80
63371;DHT22;72561;48.336;14.472;2024-01-30T05:31:21;27.90;39.80
63371;DHT22;72561;48.336;14.472;2024-01-30T05:33:03;27.90;39.80
63371;DHT22;72561;48.336;14.472;2024-01-30T05:34:44;27.90;39.80
63371;DHT22;72561;48.336;14.472;2024-01-30T05:36:25;27.90;39.80
63371;DHT22;72561;48.336;14.472;2024-01-30T05:38:06;27.90;39.80
63371;DHT22;72561;48.336;14.472;2024-01-30T05:39:48;27.90;39.90
63371;DHT22;72561;48.336;14.472;2024-01-30T05:41:29;27.90;39.90
63371;DHT22;72561;48.336;14.472;2024-01-30T05:43:12;27.90;39.90
63371;DHT22;72561;48.336;14.472;2024-01-30T05:44:53;27.90;39.90
63371;DHT22;72561;48.336;14.472;2024-01-30T05:46:35;27.90;39.90
63371;DHT22;72561;48.336;14.472;2024-01-30T05:48:17;27.90;39.90
63371;DHT22;72561;48.336;14.472;2024-01-30T05:49:59;27.90;40.00
63371;DHT22;72561;48.336;14.472;2024-01-30T05:51:40;27.90;40.00
63371;DHT22;72561;48.336;14.472;2024-01-30T05:53:21;27.90;40.00
63371;DHT22;72561;48.336;14.472;2024-01-30T05:55:03;27.90;40.00
63371;DHT22;72561;48.336;14.472;2024-01-30T05:56:44;27.90;40.10
63371;DHT22;72561;48.336;14.472;2024-01-30T05:58:29;27.90;40.10
63371;DHT22;72561;48.336;14.472;2024-01-30T06:00:12;27.90;40.10
63371;DHT22;72561;48.336;14.472;2024-01-30T06:01:54;27.90;40.10
63371;DHT22;72561;48.336;14.472;2024-01-30T06:03:35;27.90;40.00
63371;DHT22;72561;48.336;14.472;2024-01-30T06:05:16;27.80;40.00
63371;DHT22;72561;48.336;14.472;2024-01-30T06:06:58;27.80;40.10
63371;DHT22;72561;48.336;14.472;2024-01-30T06:10:05;27.80;39.50
63371;DHT22;72561;48.336;14.472;2024-01-30T06:11:47;27.80;39.90
63371;DHT22;72561;48.336;14.472;2024-01-30T06:13:28;27.80;39.90
63371;DHT22;72561;48.336;14.472;2024-01-30T06:15:09;27.80;39.80
63371;DHT22;72561;48.336;14.472;2024-01-30T06:16:50;27.80;39.70
63371;DHT22;72561;48.336;14.472;2024-01-30T06:18:32;27.80;39.70
63371;DHT22;72561;48.336;14.472;2024-01-30T06:20:13;27.80;40.30
63371;DHT22;72561;48.336;14.472;2024-01-30T06:21:54;27.80;39.60
63371;DHT22;72561;48.336;14.472;2024-01-30T06:23:35;27.80;39.50
63371;DHT22;72561;48.336;14.472;2024-01-30T06:25:18;27.80;39.40
63371;DHT22;72561;48.336;14.472;2024-01-30T06:26:59;27.80;39.50
63371;DHT22;72561;48.336;14.472;2024-01-30T06:28:40;27.80;39.40
63371;DHT22;72561;48.336;14.472;2024-01-30T06:30:21;27.80;39.40
63371;DHT22;72561;48.336;14.472;2024-01-30T06:32:03;27.80;39.40
63371;DHT22;72561;48.336;14.472;2024-01-30T06:33:46;27.80;39.40
63371;DHT22;72561;48.336;14.472;2024-01-30T06:35:27;27.80;39.40
63371;DHT22;72561;48.336;14.472;2024-01-30T06:37:09;27.80;39.40
63371;DHT22;72561;48.336;14.472;2024-01-30T06:38:50;27.80;39.50
63371;DHT22;72561;48.336;14.472;2024-01-30T06:40:32;27.80;39.50
63371;DHT22;72561;48.336;14.472;2024-01-30T06:42:13;27.80;39.60
63371;DHT22;72561;48.336;14.472;2024-01-30T06:43:55;27.80;39.50
63371;DHT22;72561;48.336;14.472;2024-01-30T06:45:36;27.80;39.60
63371;DHT22;72561;48.336;14.472;2024-01-30T06:47:18;27.80;39.50
63371;DHT22;72561;48.336;14.472;2024-01-30T06:48:59;27.80;39.40
63371;DHT22;72561;48.336;14.472;2024-01-30T06:50:41;27.80;39.40
63371;DHT22;72561;48.336;14.472;2024-01-30T06:52:22;27.80;39.50
63371;DHT22;72561;48.336;14.472;2024-01-30T06:54:03;27.80;39.50
63371;DHT22;72561;48.336;14.472;2024-01-30T06:55:46;27.80;39.50
63371;DHT22;72561;48.336;14.472;2024-01-30T06:57:27;27.80;39.50
63371;DHT22;72561;48.336;14.472;2024-01-30T06:59:08;27.80;39.60
63371;DHT22;72561;48.336;14.472;2024-01-30T07:00:50;27.80;39.60
63371;DHT22;72561;48.336;14.472;2024-01-30T07:02:32;27.80;39.50
63371;DHT22;72561;48.336;14.472;2024-01-30T07:04:13;27.80;39.40
63371;DHT22;72561;48.336;14.472;2024-01-30T07:05:54;27.80;39.40
63371;DHT22;72561;48.336;14.472;2024-01-30T07:07:35;27.80;39.30
63371;DHT22;72561;48.336;14.472;2024-01-30T07:09:16;27.80;40.00
63371;DHT22;72561;48.336;14.472;2024-01-30T07:10:59;27.80;39.20
63371;DHT22;72561;48.336;14.472;2024-01-30T07:12:40;27.80;39.20
63371;DHT22;72561;48.336;14.472;2024-01-30T07:14:21;27.80;39.30
63371;DHT22;72561;48.336;14.472;2024-01-30T07:16:03;27.80;39.30
63371;DHT22;72561;48.336;14.472;2024-01-30T07:17:44;27.80;39.30
63371;DHT22;72561;48.336;14.472;2024-01-30T07:19:25;27.80;39.40
63371;DHT22;72561;48.336;14.472;2024-01-30T07:21:07;27.80;39.40
63371;DHT22;72561;48.336;14.472;2024-01-30T07:22:48;27.80;39.50
63371;DHT22;72561;48.336;14.472;2024-01-30T07:24:29;27.80;39.50
63371;DHT22;72561;48.336;14.472;2024-01-30T07:26:11;27.80;39.40
63371;DHT22;72561;48.336;14.472;2024-01-30T07:27:52;27.80;39.50
63371;DHT22;72561;48.336;14.472;2024-01-30T07:29:34;27.80;39.50
63371;DHT22;72561;48.336;14.472;2024-01-30T07:31:15;27.80;39.50
63371;DHT22;72561;48.336;14.472;2024-01-30T07:32:56;27.80;39.50
63371;DHT22;72561;48.336;14.472;2024-01-30T07:34:37;27.80;39.60
63371;DHT22;72561;48.336;14.472;2024-01-30T07:36:18;27.80;39.60
63371;DHT22;72561;48.336;14.472;2024-01-30T07:37:59;27.80;39.60
63371;DHT22;72561;48.336;14.472;2024-01-30T07:39:40;27.80;39.60
63371;DHT22;72561;48.336;14.472;2024-01-30T07:41:23;27.80;39.60
63371;DHT22;72561;48.336;14.472;2024-01-30T07:43:04;27.80;39.70
63371;DHT22;72561;48.336;14.472;2024-01-30T07:44:45;27.80;39.70
63371;DHT22;72561;48.336;14.472;2024-01-30T07:46:26;27.80;39.70
63371;DHT22;72561;48.336;14.472;2024-01-30T07:48:07;27.70;39.60
63371;DHT22;72561;48.336;14.472;2024-01-30T07:49:49;27.80;39.70
63371;DHT22;72561;48.336;14.472;2024-01-30T07:51:30;27.70;39.60
63371;DHT22;72561;48.336;14.472;2024-01-30T07:53:11;27.70;39.50
63371;DHT22;72561;48.336;14.472;2024-01-30T07:57:29;27.80;39.60
63371;DHT22;72561;48.336;14.472;2024-01-30T07:59:11;27.80;39.60
63371;DHT22;72561;48.336;14.472;2024-01-30T08:00:52;27.70;39.40
63371;DHT22;72561;48.336;14.472;2024-01-30T08:02:33;27.70;39.40
63371;DHT22;72561;48.336;14.472;2024-01-30T08:04:14;27.70;39.40
63371;DHT22;72561;48.336;14.472;2024-01-30T08:05:55;27.80;39.50
63371;DHT22;72561;48.336;14.472;2024-01-30T08:07:36;27.70;39.40
63371;DHT22;72561;48.336;14.472;2024-01-30T08:09:18;27.80;39.50
63371;DHT22;72561;48.336;14.472;2024-01-30T08:10:59;27.70;39.40
63371;DHT22;72561;48.336;14.472;2024-01-30T08:12:42;27.70;39.40
63371;DHT22;72561;48.336;14.472;2024-01-30T08:14:23;27.70;39.50
63371;DHT22;72561;48.336;14.472;2024-01-30T08:16:05;27.70;39.50
63371;DHT22;72561;48.336;14.472;2024-01-30T08:17:46;27.70;39.50
63371;DHT22;72561;48.336;14.472;2024-01-30T08:19:27;27.70;39.50
63371;DHT22;72561;48.336;14.472;2024-01-30T08:21:09;27.70;39.50
63371;DHT22;72561;48.336;14.472;2024-01-30T08:22:50;27.70;39.60
63371;DHT22;72561;48.336;14.472;2024-01-30T08:24:31;27.70;39.60
63371;DHT22;72561;48.336;14.472;2024-01-30T08:26:12;27.70;39.60
63371;DHT22;72561;48.336;14.472;2024-01-30T08:27:54;27.70;39.60
63371;DHT22;72561;48.336;14.472;2024-01-30T08:29:36;27.70;39.60
63371;DHT22;72561;48.336;14.472;2024-01-30T08:31:17;27.70;39.60
63371;DHT22;72561;48.336;14.472;2024-01-30T08:32:58;27.70;39.60
63371;DHT22;72561;48.336;14.472;2024-01-30T08:34:39;27.70;39.60
63371;DHT22;72561;48.336;14.472;2024-01-30T08:36:21;27.70;39.60
63371;DHT22;72561;48.336;14.472;2024-01-30T08:38:02;27.70;39.60
63371;DHT22;72561;48.336;14.472;2024-01-30T08:39:43;27.80;39.70
63371;DHT22;72561;48.336;14.472;2024-01-30T08:41:24;27.70;39.60
63371;DHT22;72561;48.336;14.472;2024-01-30T08:43:07;27.70;39.60
63371;DHT22;72561;48.336;14.472;2024-01-30T08:44:48;27.70;39.70
63371;DHT22;72561;48.336;14.472;2024-01-30T08:46:29;27.70;39.70
63371;DHT22;72561;48.336;14.472;2024-01-30T08:48:11;27.70;39.70
63371;DHT22;72561;48.336;14.472;2024-01-30T08:49:52;27.80;39.80
63371;DHT22;72561;48.336;14.472;2024-01-30T08:51:33;27.70;39.70
63371;DHT22;72561;48.336;14.472;2024-01-30T08:53:14;27.70;39.70
63371;DHT22;72561;48.336;14.472;2024-01-30T08:54:55;27.70;39.70
63371;DHT22;72561;48.336;14.472;2024-01-30T08:56:36;27.70;39.70
63371;DHT22;72561;48.336;14.472;2024-01-30T08:58:19;27.70;39.70
63371;DHT22;72561;48.336;14.472;2024-01-30T09:00:00;27.70;39.70
63371;DHT22;72561;48.336;14.472;2024-01-30T09:01:42;27.70;39.70
63371;DHT22;72561;48.336;14.472;2024-01-30T09:03:24;27.70;39.70
63371;DHT22;72561;48.336;14.472;2024-01-30T09:05:05;27.70;39.70
63371;DHT22;72561;48.336;14.472;2024-01-30T09:06:47;27.70;39.70
63371;DHT22;72561;48.336;14.472;2024-01-30T09:08:28;27.70;39.70
63371;DHT22;72561;48.336;14.472;2024-01-30T09:10:10;27.70;39.70
63371;DHT22;72561;48.336;14.472;2024-01-30T09:11:52;27.80;39.80
63371;DHT22;72561;48.336;14.472;2024-01-30T09:13:34;27.70;39.70
63371;DHT22;72561;48.336;14.472;2024-01-30T09:15:15;27.80;39.80
63371;DHT22;72561;48.336;14.472;2024-01-30T09:16:57;27.70;39.70
63371;DHT22;72561;48.336;14.472;2024-01-30T09:18:38;27.70;39.80
63371;DHT22;72561;48.336;14.472;2024-01-30T09:20:19;27.70;40.40
63371;DHT22;72561;48.336;14.472;2024-01-30T09:22:00;27.70;39.80
63371;DHT22;72561;48.336;14.472;2024-01-30T09:23:41;27.70;39.80
63371;DHT22;72561;48.336;14.472;2024-01-30T09:25:22;27.80;39.90
63371;DHT22;72561;48.336;14.472;2024-01-30T09:27:04;27.70;40.50
63371;DHT22;72561;48.336;14.472;2024-01-30T09:28:46;27.70;39.80
63371;DHT22;72561;48.336;14.472;2024-01-30T09:30:27;27.70;39.80
63371;DHT22;72561;48.336;14.472;2024-01-30T09:32:09;27.70;39.80
63371;DHT22;72561;48.336;14.472;2024-01-30T09:33:50;27.70;39.80
63371;DHT22;72561;48.336;14.472;2024-01-30T09:35:31;27.70;39.70
63371;DHT22;72561;48.336;14.472;2024-01-30T09:37:12;27.70;39.80
63371;DHT22;72561;48.336;14.472;2024-01-30T09:38:53;27.80;39.90
63371;DHT22;72561;48.336;14.472;2024-01-30T09:40:34;27.70;39.80
63371;DHT22;72561;48.336;14.472;2024-01-30T09:42:24;27.70;39.80
63371;DHT22;72561;48.336;14.472;2024-01-30T09:44:11;27.70;39.80
63371;DHT22;72561;48.336;14.472;2024-01-30T09:45:53;27.70;39.80
63371;DHT22;72561;48.336;14.472;2024-01-30T09:47:40;27.70;39.80
63371;DHT22;72561;48.336;14.472;2024-01-30T09:49:22;27.70;39.70
63371;DHT22;72561;48.336;14.472;2024-01-30T09:51:03;27.70;39.80
63371;DHT22;72561;48.336;14.472;2024-01-30T09:52:45;27.70;39.80
63371;DHT22;72561;48.336;14.472;2024-01-30T09:54:29;27.70;39.80
63371;DHT22;72561;48.336;14.472;2024-01-30T09:56:12;27.70;39.80
63371;DHT22;72561;48.336;14.472;2024-01-30T09:57:53;27.70;39.80
63371;DHT22;72561;48.336;14.472;2024-01-30T09:59:36;27.70;39.80
63371;DHT22;72561;48.336;14.472;2024-01-30T10:01:17;27.70;39.80
63371;DHT22;72561;48.336;14.472;2024-01-30T10:02:59;27.70;39.80
63371;DHT22;72561;48.336;14.472;2024-01-30T10:04:40;27.70;39.80
63371;DHT22;72561;48.336;14.472;2024-01-30T10:06:21;27.70;39.80
63371;DHT22;72561;48.336;14.472;2024-01-30T10:08:06;27.70;39.80
63371;DHT22;72561;48.336;14.472;2024-01-30T10:09:48;27.70;39.80
63371;DHT22;72561;48.336;14.472;2024-01-30T10:11:29;27.70;39.80
63371;DHT22;72561;48.336;14.472;2024-01-30T10:13:10;27.70;39.80
63371;DHT22;72561;48.336;14.472;2024-01-30T10:14:53;27.70;39.80
63371;DHT22;72561;48.336;14.472;2024-01-30T10:16:37;27.70;39.80
63371;DHT22;72561;48.336;14.472;2024-01-30T10:18:18;27.70;39.80
63371;DHT22;72561;48.336;14.472;2024-01-30T10:19:59;27.70;39.80
63371;DHT22;72561;48.336;14.472;2024-01-30T10:21:40;27.70;39.80
63371;DHT22;72561;48.336;14.472;2024-01-30T10:23:22;27.70;39.80
63371;DHT22;72561;48.336;14.472;2024-01-30T10:25:05;27.70;39.80
63371;DHT22;72561;48.336;14.472;2024-01-30T10:26:47;27.70;39.80
63371;DHT22;72561;48.336;14.472;2024-01-30T10:28:28;27.70;39.80
63371;DHT22;72561;48.336;14.472;2024-01-30T10:30:12;27.70;39.80
63371;DHT22;72561;48.336;14.472;2024-01-30T10:32:01;27.70;39.80
63371;DHT22;72561;48.336;14.472;2024-01-30T10:33:47;27.70;39.80
63371;DHT22;72561;48.336;14.472;2024-01-30T10:35:31;27.70;39.80
63371;DHT22;72561;48.336;14.472;2024-01-30T10:37:12;27.70;39.80
63371;DHT22;72561;48.336;14.472;2024-01-30T10:38:55;27.70;39.80
63371;DHT22;72561;48.336;14.472;2024-01-30T10:40:40;27.70;39.80